createdAt,value
2022-12-29T00:00:23.293Z,160935.16
2022-12-29T00:03:27.725Z,160952.13
2022-12-29T00:06:32.031Z,160940.41
2022-12-29T00:09:36.583Z,160941.69
2022-12-29T00:12:59.137Z,160965.25
2022-12-29T00:16:05.866Z,160967.84
2022-12-29T00:19:30.322Z,160957.34
2022-12-29T00:22:53.000Z,161017.53
2022-12-29T00:26:15.742Z,161009.66
2022-12-29T00:29:38.742Z,160996.59
2022-12-29T00:33:01.685Z,161000.50
2022-12-29T00:36:23.310Z,161009.66
2022-12-29T00:40:06.123Z,161025.34
2022-12-29T00:43:29.969Z,161035.78
2022-12-29T00:46:35.160Z,161042.38
2022-12-29T00:49:39.269Z,161054.09
2022-12-29T00:52:43.525Z,161052.78
2022-12-29T00:55:47.495Z,161084.22
2022-12-29T00:58:51.656Z,161072.41
2022-12-29T01:01:56.653Z,161101.19
2022-12-29T01:05:01.092Z,161112.97
2022-12-29T01:08:05.520Z,161120.78
2022-12-29T01:11:13.853Z,161129.97
2022-12-29T01:14:19.187Z,161111.66
2022-12-29T01:17:23.206Z,161149.56
2022-12-29T01:20:28.540Z,161148.25
2022-12-29T01:23:33.255Z,161143.03
2022-12-29T01:26:37.091Z,161135.22
2022-12-29T01:29:41.317Z,161129.97
2022-12-29T01:32:45.390Z,161124.72
2022-12-29T01:35:49.047Z,161152.19
2022-12-29T01:38:53.249Z,161152.19
2022-12-29T01:41:57.551Z,161161.31
2022-12-29T01:45:13.661Z,161163.97
2022-12-29T01:48:20.738Z,161177.03
2022-12-29T01:51:29.608Z,161179.69
2022-12-29T01:54:43.744Z,161174.44
2022-12-29T01:57:52.715Z,161152.19
2022-12-29T02:00:57.285Z,161163.97
2022-12-29T02:04:02.227Z,161156.09
2022-12-29T02:07:14.539Z,161173.09
2022-12-29T02:10:21.683Z,161180.97
2022-12-29T02:13:26.672Z,161165.25
2022-12-29T02:17:15.330Z,161166.56
2022-12-29T02:21:05.357Z,161158.75
2022-12-29T02:24:46.260Z,161171.81
2022-12-29T02:27:56.713Z,161183.56
2022-12-29T02:31:26.718Z,161205.75
2022-12-29T02:35:02.089Z,161243.72
2022-12-29T02:38:26.175Z,161246.38
2022-12-29T02:41:40.341Z,161251.53
2022-12-29T02:44:59.516Z,161245.06
2022-12-29T02:48:32.371Z,161254.19
2022-12-29T02:51:52.856Z,161243.72
2022-12-29T02:54:56.905Z,161248.94
2022-12-29T02:58:20.601Z,161250.28
2022-12-29T03:01:33.996Z,161241.13
2022-12-29T03:04:47.231Z,161233.28
2022-12-29T03:08:03.381Z,161238.53
2022-12-29T03:11:33.041Z,161230.63
2022-12-29T03:15:08.570Z,161217.59
2022-12-29T03:18:24.464Z,161208.41
2022-12-29T03:22:04.487Z,161213.66
2022-12-29T03:25:19.530Z,161243.72
2022-12-29T03:28:29.206Z,161248.94
2022-12-29T03:31:33.783Z,161247.66
2022-12-29T03:34:39.323Z,161262.06
2022-12-29T03:38:13.284Z,161256.81
2022-12-29T03:41:20.836Z,161273.81
2022-12-29T03:44:33.946Z,161271.19
2022-12-29T03:47:37.569Z,161268.59
2022-12-29T03:50:41.621Z,161280.38
2022-12-29T03:53:45.896Z,161286.91
2022-12-29T03:56:50.323Z,161276.41
2022-12-29T03:59:54.501Z,161268.59
2022-12-29T04:02:58.893Z,161279.06
2022-12-29T04:06:02.845Z,161277.72
2022-12-29T04:09:07.708Z,161292.13
2022-12-29T04:12:11.900Z,161273.81
2022-12-29T04:15:15.817Z,161280.38
2022-12-29T04:18:19.872Z,161271.19
2022-12-29T04:21:23.914Z,161296.06
2022-12-29T04:24:27.932Z,161309.19
2022-12-29T04:27:32.328Z,161310.47
2022-12-29T04:30:36.388Z,161349.72
2022-12-29T04:33:40.186Z,161327.47
2022-12-29T04:36:44.227Z,161309.19
2022-12-29T04:39:48.058Z,161293.41
2022-12-29T04:42:54.898Z,161314.34
2022-12-29T04:45:59.091Z,161364.06
2022-12-29T04:49:09.241Z,161340.53
2022-12-29T04:52:13.315Z,161360.13
2022-12-29T04:55:17.378Z,161349.72
2022-12-29T04:58:23.552Z,161347.06
2022-12-29T05:01:27.912Z,161323.53
2022-12-29T05:04:32.201Z,161302.59
2022-12-29T05:07:36.393Z,161319.59
2022-12-29T05:10:40.424Z,161280.38
2022-12-29T05:13:47.276Z,161241.13
2022-12-29T05:16:51.115Z,161256.81
2022-12-29T05:19:55.486Z,161246.38
2022-12-29T05:23:00.319Z,161237.22
2022-12-29T05:26:04.205Z,161205.75
2022-12-29T05:29:08.385Z,161186.16
2022-12-29T05:32:12.380Z,161184.88
2022-12-29T05:35:16.826Z,161174.44
2022-12-29T05:38:21.210Z,161194.03
2022-12-29T05:41:25.058Z,161187.50
2022-12-29T05:44:29.145Z,161167.88
2022-12-29T05:47:33.048Z,161180.97
2022-12-29T05:50:36.927Z,161171.81
2022-12-29T05:53:40.845Z,161179.69
2022-12-29T05:56:44.707Z,161171.81
2022-12-29T05:59:48.973Z,161163.97
2022-12-29T06:02:53.026Z,161174.44
2022-12-29T06:05:57.011Z,161195.34
2022-12-29T06:09:00.710Z,161190.09
2022-12-29T06:12:05.310Z,161229.34
2022-12-29T06:15:09.891Z,161221.53
2022-12-29T06:18:19.416Z,161256.81
2022-12-29T06:21:24.194Z,161260.75
2022-12-29T06:24:28.146Z,161263.38
2022-12-29T06:27:34.132Z,161273.81
2022-12-29T06:30:38.959Z,161302.59
2022-12-29T06:33:45.217Z,161292.13
2022-12-29T06:36:52.513Z,161305.25
2022-12-29T06:39:56.659Z,161320.91
2022-12-29T06:43:00.601Z,161318.25
2022-12-29T06:46:05.875Z,161315.66
2022-12-29T06:49:09.631Z,161335.28
2022-12-29T06:52:13.553Z,161332.72
2022-12-29T06:55:18.090Z,161322.19
2022-12-29T06:58:22.047Z,161315.66
2022-12-29T07:01:26.271Z,161289.53
2022-12-29T07:04:30.259Z,161273.81
2022-12-29T07:07:35.338Z,161256.81
2022-12-29T07:10:39.547Z,161251.53
2022-12-29T07:13:43.913Z,161224.13
2022-12-29T07:16:48.085Z,161216.28
2022-12-29T07:19:52.189Z,161222.81
2022-12-29T07:22:56.208Z,161230.63
2022-12-29T07:26:02.267Z,161254.19
2022-12-29T07:29:06.392Z,161237.22
2022-12-29T07:32:10.392Z,161239.81
2022-12-29T07:35:14.348Z,161230.63
2022-12-29T07:38:18.591Z,161192.75
2022-12-29T07:41:22.983Z,161195.34
2022-12-29T07:44:27.230Z,161211.03
2022-12-29T07:47:31.231Z,161258.13
2022-12-29T07:50:36.441Z,161252.88
2022-12-29T07:53:40.584Z,161275.13
2022-12-29T07:56:45.407Z,161252.88
2022-12-29T07:59:49.307Z,161234.59
2022-12-29T08:02:53.498Z,161264.66
2022-12-29T08:05:57.895Z,161279.06
2022-12-29T08:09:11.058Z,161290.84
2022-12-29T08:12:18.621Z,161309.19
2022-12-29T08:15:28.555Z,161323.53
2022-12-29T08:18:34.908Z,161353.66
2022-12-29T08:21:39.736Z,161344.47
2022-12-29T08:24:44.011Z,161348.41
2022-12-29T08:27:48.067Z,161349.72
2022-12-29T08:30:52.877Z,161357.53
2022-12-29T08:33:57.290Z,161382.41
2022-12-29T08:37:01.757Z,161404.66
2022-12-29T08:40:06.904Z,161413.81
2022-12-29T08:43:11.001Z,161416.47
2022-12-29T08:46:16.052Z,161441.28
2022-12-29T08:49:20.112Z,161447.81
2022-12-29T08:52:24.565Z,161454.41
2022-12-29T08:55:28.600Z,161521.06
2022-12-29T08:58:33.618Z,161540.72
2022-12-29T09:01:41.273Z,161566.88
2022-12-29T09:04:45.395Z,161603.56
2022-12-29T09:07:49.287Z,161606.16
2022-12-29T09:10:53.780Z,161621.84
2022-12-29T09:13:57.674Z,161663.75
2022-12-29T09:17:20.169Z,161699.13
2022-12-29T09:20:24.300Z,161758.00
2022-12-29T09:23:28.626Z,161790.72
2022-12-29T09:26:32.614Z,161826.09
2022-12-29T09:29:36.787Z,161847.06
2022-12-29T09:32:45.101Z,161858.81
2022-12-29T09:35:55.688Z,161835.25
2022-12-29T09:38:59.750Z,161847.06
2022-12-29T09:42:17.231Z,161847.06
2022-12-29T09:45:33.952Z,161873.22
2022-12-29T09:48:44.651Z,161839.19
2022-12-29T09:52:00.376Z,161820.81
2022-12-29T09:55:22.105Z,161844.44
2022-12-29T09:58:48.642Z,161849.66
2022-12-29T10:02:05.824Z,161868.03
2022-12-29T10:05:30.411Z,161860.13
2022-12-29T10:09:00.713Z,161898.13
2022-12-29T10:12:20.017Z,161892.88
2022-12-29T10:15:39.202Z,161877.16
2022-12-29T10:19:08.920Z,161875.84
2022-12-29T10:22:16.159Z,161864.09
2022-12-29T10:25:28.387Z,161851.00
2022-12-29T10:28:41.106Z,161827.44
2022-12-29T10:31:50.778Z,161788.13
2022-12-29T10:34:59.632Z,161781.56
2022-12-29T10:38:20.132Z,161775.03
2022-12-29T10:41:33.787Z,161748.84
2022-12-29T10:44:38.388Z,161765.81
2022-12-29T10:48:17.784Z,161861.41
2022-12-29T10:51:43.777Z,161890.25
2022-12-29T10:54:57.203Z,161909.91
2022-12-29T10:58:05.871Z,161941.28
2022-12-29T11:01:12.587Z,161985.84
2022-12-29T11:04:26.570Z,161967.53
2022-12-29T11:07:31.176Z,162010.69
2022-12-29T11:10:39.816Z,162043.47
2022-12-29T11:13:56.213Z,162067.06
2022-12-29T11:17:05.281Z,162074.94
2022-12-29T11:20:36.435Z,162086.72
2022-12-29T11:23:42.578Z,162086.72
2022-12-29T11:26:46.464Z,162090.66
2022-12-29T11:29:54.926Z,162085.44
2022-12-29T11:32:59.203Z,162084.09
2022-12-29T11:36:17.416Z,162080.16
2022-12-29T11:39:29.820Z,162072.34
2022-12-29T11:42:40.587Z,162063.13
2022-12-29T11:45:47.593Z,162057.84
2022-12-29T11:48:51.968Z,162059.19
2022-12-29T11:51:57.829Z,162072.34
2022-12-29T11:55:05.349Z,162086.72
2022-12-29T11:58:16.678Z,162071.00
2022-12-29T12:01:39.430Z,162086.72
2022-12-29T12:04:43.525Z,162088.03
2022-12-29T12:07:53.347Z,162114.22
2022-12-29T12:11:05.458Z,162145.66
2022-12-29T12:14:19.264Z,162144.31
2022-12-29T12:17:38.147Z,162190.16
2022-12-29T12:20:48.621Z,162195.44
2022-12-29T12:24:02.651Z,162171.91
2022-12-29T12:27:27.432Z,162175.78
2022-12-29T12:30:40.483Z,162186.28
2022-12-29T12:33:51.542Z,162179.72
2022-12-29T12:37:04.692Z,162185.00
2022-12-29T12:40:34.929Z,162179.72
2022-12-29T12:44:16.025Z,162150.91
2022-12-29T12:47:36.310Z,162111.56
2022-12-29T12:50:59.302Z,162088.03
2022-12-29T12:54:31.531Z,162060.50
2022-12-29T12:57:50.215Z,162039.59
2022-12-29T13:00:57.519Z,162026.44
2022-12-29T13:04:27.197Z,162018.63
2022-12-29T13:08:04.702Z,162013.34
2022-12-29T13:11:26.002Z,162015.97
2022-12-29T13:14:48.936Z,162014.69
2022-12-29T13:18:08.484Z,162014.69
2022-12-29T13:21:19.123Z,162006.81
2022-12-29T13:24:43.093Z,162010.69
2022-12-29T13:27:53.162Z,162001.59
2022-12-29T13:31:21.892Z,162004.19
2022-12-29T13:34:50.042Z,162006.81
2022-12-29T13:38:01.237Z,162019.91
2022-12-29T13:41:30.275Z,161996.31
2022-12-29T13:44:52.241Z,161989.81
2022-12-29T13:48:05.564Z,161974.06
2022-12-29T13:51:11.365Z,161963.59
2022-12-29T13:54:43.418Z,161920.38
2022-12-29T13:58:05.114Z,161903.34
2022-12-29T14:01:16.115Z,161888.94
2022-12-29T14:04:29.285Z,161865.41
2022-12-29T14:07:40.347Z,161856.22
2022-12-29T14:10:52.541Z,161841.78
2022-12-29T14:13:57.058Z,161830.03
2022-12-29T14:17:14.758Z,161818.22
2022-12-29T14:20:23.427Z,161806.47
2022-12-29T14:23:41.294Z,161807.75
2022-12-29T14:26:45.226Z,161793.38
2022-12-29T14:29:50.879Z,161776.34
2022-12-29T14:33:15.593Z,161777.69
2022-12-29T14:36:21.317Z,161740.97
2022-12-29T14:40:13.834Z,161720.09
2022-12-29T14:43:27.051Z,161709.56
2022-12-29T14:46:48.971Z,161714.81
2022-12-29T14:49:53.232Z,161705.66
2022-12-29T14:53:03.708Z,161697.78
2022-12-29T14:56:11.023Z,161696.47
2022-12-29T14:59:15.861Z,161695.19
2022-12-29T15:02:26.923Z,161686.03
2022-12-29T15:05:35.602Z,161686.03
2022-12-29T15:08:47.745Z,161671.56
2022-12-29T15:11:55.157Z,161672.91
2022-12-29T15:15:00.723Z,161671.56
2022-12-29T15:18:26.370Z,161653.28
2022-12-29T15:21:34.237Z,161649.41
2022-12-29T15:24:43.669Z,161657.22
2022-12-29T15:27:53.514Z,161662.44
2022-12-29T15:31:04.508Z,161663.75
2022-12-29T15:34:13.596Z,161619.25
2022-12-29T15:37:23.964Z,161590.47
2022-12-29T15:40:33.097Z,161557.75
2022-12-29T15:43:47.391Z,161556.47
2022-12-29T15:46:51.521Z,161535.53
2022-12-29T15:50:03.764Z,161518.47
2022-12-29T15:53:12.963Z,161514.56
2022-12-29T15:56:17.787Z,161504.09
2022-12-29T15:59:34.525Z,161485.75
2022-12-29T16:02:38.657Z,161474.00
2022-12-29T16:05:52.492Z,161453.06
2022-12-29T16:09:17.005Z,161433.47
2022-12-29T16:12:27.608Z,161438.63
2022-12-29T16:15:31.561Z,161421.63
2022-12-29T16:18:37.630Z,161408.59
2022-12-29T16:21:42.600Z,161398.06
2022-12-29T16:24:46.634Z,161381.06
2022-12-29T16:27:53.062Z,161362.78
2022-12-29T16:31:05.589Z,161347.06
2022-12-29T16:34:40.874Z,161339.19
2022-12-29T16:37:45.302Z,161339.19
2022-12-29T16:40:52.391Z,161315.66
2022-12-29T16:44:22.299Z,161281.66
2022-12-29T16:47:31.277Z,161268.59
2022-12-29T16:50:38.460Z,161254.19
2022-12-29T16:53:48.954Z,161224.13
2022-12-29T16:56:54.335Z,161211.03
2022-12-29T17:00:02.139Z,161187.50
2022-12-29T17:03:06.959Z,161177.03
2022-12-29T17:06:16.610Z,161163.97
2022-12-29T17:09:23.723Z,161148.25
2022-12-29T17:12:30.436Z,161128.66
2022-12-29T17:15:35.654Z,161118.19
2022-12-29T17:18:39.943Z,161110.38
2022-12-29T17:21:44.836Z,161101.19
2022-12-29T17:24:48.901Z,161097.28
2022-12-29T17:28:01.069Z,161081.56
2022-12-29T17:31:06.973Z,161067.22
2022-12-29T17:34:13.486Z,161073.69
2022-12-29T17:37:35.571Z,161075.03
2022-12-29T17:40:39.497Z,161056.72
2022-12-29T17:43:43.355Z,161054.09
2022-12-29T17:46:48.847Z,161038.44
2022-12-29T17:49:53.351Z,161029.25
2022-12-29T17:53:03.943Z,161025.34
2022-12-29T17:56:10.063Z,161017.53
2022-12-29T17:59:15.281Z,161016.19
2022-12-29T18:02:31.356Z,161033.19
2022-12-29T18:05:35.800Z,161033.19
2022-12-29T18:08:43.957Z,161037.13
2022-12-29T18:11:48.184Z,161043.69
2022-12-29T18:14:52.497Z,161030.59
2022-12-29T18:18:03.063Z,161038.44
2022-12-29T18:21:16.614Z,161029.25
2022-12-29T18:24:23.209Z,161025.34
2022-12-29T18:27:27.409Z,161024.00
2022-12-29T18:30:31.796Z,161017.53
2022-12-29T18:33:36.313Z,161014.94
2022-12-29T18:36:40.258Z,161014.94
2022-12-29T18:39:44.506Z,161003.09
2022-12-29T18:42:48.657Z,160999.16
2022-12-29T18:45:53.187Z,161001.81
2022-12-29T18:48:57.480Z,160982.19
2022-12-29T18:52:01.464Z,160970.44
2022-12-29T18:55:12.829Z,160971.78
2022-12-29T18:58:16.792Z,160974.31
2022-12-29T19:01:23.390Z,160974.31
2022-12-29T19:04:27.865Z,160952.13
2022-12-29T19:07:32.155Z,160946.94
2022-12-29T19:10:36.791Z,160948.25
2022-12-29T19:13:40.618Z,160941.69
2022-12-29T19:16:49.751Z,160937.75
2022-12-29T19:19:53.775Z,160935.16
2022-12-29T19:23:00.013Z,160932.50
2022-12-29T19:26:04.341Z,160920.78
2022-12-29T19:29:14.551Z,160909.00
2022-12-29T19:32:18.563Z,160892.00
2022-12-29T19:35:25.368Z,160892.00
2022-12-29T19:38:29.824Z,160877.63
2022-12-29T19:41:33.723Z,160880.22
2022-12-29T19:44:37.815Z,160892.00
2022-12-29T19:47:42.053Z,160894.66
2022-12-29T19:50:46.727Z,160899.88
2022-12-29T19:53:51.565Z,160878.91
2022-12-29T19:56:55.479Z,160863.25
2022-12-29T19:59:59.642Z,160861.91
2022-12-29T20:03:03.935Z,160886.75
2022-12-29T20:06:09.441Z,160884.16
2022-12-29T20:09:13.409Z,160888.09
2022-12-29T20:12:17.622Z,160894.66
2022-12-29T20:15:21.532Z,160881.56
2022-12-29T20:18:29.219Z,160871.09
2022-12-29T20:21:33.523Z,160863.25
2022-12-29T20:24:38.792Z,160855.38
2022-12-29T20:27:43.046Z,160851.47
2022-12-29T20:31:01.747Z,160850.16
2022-12-29T20:34:08.697Z,160858.00
2022-12-29T20:37:14.421Z,160856.72
2022-12-29T20:40:18.437Z,160859.31
2022-12-29T20:43:22.448Z,160865.84
2022-12-29T20:46:33.979Z,160863.25
2022-12-29T20:49:43.222Z,160867.16
2022-12-29T20:52:47.458Z,160869.81
2022-12-29T20:55:51.703Z,160837.09
2022-12-29T21:02:22.379Z,160804.41
2022-12-29T21:05:27.740Z,160801.81
2022-12-29T21:08:32.019Z,160786.16
2022-12-29T21:11:36.054Z,160803.13
2022-12-29T21:14:45.367Z,160792.69
2022-12-29T21:17:49.528Z,160795.34
2022-12-29T21:20:57.262Z,160790.09
2022-12-29T21:24:05.819Z,160765.25
2022-12-29T21:27:10.182Z,160761.31
2022-12-29T21:30:14.568Z,160762.59
2022-12-29T21:33:19.892Z,160769.19
2022-12-29T21:36:24.506Z,160762.59
2022-12-29T21:39:28.669Z,160758.69
2022-12-29T21:42:32.785Z,160787.44
2022-12-29T21:45:36.932Z,160765.25
2022-12-29T21:48:40.834Z,160763.94
2022-12-29T21:51:50.897Z,160746.91
2022-12-29T21:55:00.886Z,160765.25
2022-12-29T21:58:23.408Z,160776.97
2022-12-29T22:01:48.517Z,160763.94
2022-12-29T22:05:11.575Z,160765.25
2022-12-29T22:08:34.508Z,160767.84
2022-12-29T22:11:57.344Z,160765.25
2022-12-29T22:15:01.571Z,160788.75
2022-12-29T22:18:06.403Z,160745.69
2022-12-29T22:21:10.941Z,160743.03
2022-12-29T22:24:14.763Z,160729.94
2022-12-29T22:27:19.012Z,160724.72
2022-12-29T22:30:23.190Z,160727.34
2022-12-29T22:33:27.203Z,160709.03
2022-12-29T22:36:32.126Z,160681.63
2022-12-29T22:39:36.016Z,160679.00
2022-12-29T22:42:40.305Z,160665.91
2022-12-29T22:45:44.446Z,160656.78
2022-12-29T22:48:48.407Z,160648.94
2022-12-29T22:51:52.298Z,160634.56
2022-12-29T22:54:59.165Z,160622.81
2022-12-29T22:58:05.815Z,160614.97
2022-12-29T23:01:11.278Z,160604.56
2022-12-29T23:04:59.117Z,160601.91
2022-12-29T23:07:39.444Z,160594.06
2022-12-29T23:10:43.434Z,160592.75
2022-12-29T23:13:47.847Z,160583.63
2022-12-29T23:16:51.885Z,160587.53
2022-12-29T23:19:55.940Z,160579.69
2022-12-29T23:23:00.107Z,160570.59
2022-12-29T23:26:04.402Z,160586.22
2022-12-29T23:29:12.443Z,160582.28
2022-12-29T23:32:16.802Z,160586.22
2022-12-29T23:35:20.871Z,160577.09
2022-12-29T23:38:25.052Z,160584.91
2022-12-29T23:41:29.340Z,160605.84
2022-12-29T23:44:33.820Z,160617.56
2022-12-29T23:47:37.688Z,160622.81
2022-12-29T23:50:41.843Z,160641.09
2022-12-29T23:53:46.526Z,160642.38
2022-12-29T23:56:50.821Z,160648.94
2022-12-29T23:59:54.811Z,160669.84
